createdAt,value
2022-12-06T00:01:10.385Z,98.17
2022-12-06T00:03:39.213Z,98.47
2022-12-06T00:06:08.073Z,98.32
2022-12-06T00:08:36.314Z,98.08
2022-12-06T00:11:05.970Z,97.88
2022-12-06T00:13:34.256Z,98.17
2022-12-06T00:16:04.513Z,98.41
2022-12-06T00:18:33.565Z,98.35
2022-12-06T00:21:06.474Z,98.45
2022-12-06T00:23:35.830Z,98.13
2022-12-06T00:26:04.507Z,98.15
2022-12-06T00:28:41.688Z,98.39
2022-12-06T00:31:13.418Z,98.50
2022-12-06T00:33:41.882Z,98.70
2022-12-06T00:36:12.138Z,98.54
2022-12-06T00:38:40.450Z,98.73
2022-12-06T00:41:10.045Z,98.33
2022-12-06T00:43:38.369Z,98.14
2022-12-06T00:46:07.992Z,98.09
2022-12-06T00:48:37.569Z,98.34
2022-12-06T00:51:05.890Z,98.73
2022-12-06T00:53:34.121Z,98.44
2022-12-06T00:56:02.593Z,98.74
2022-12-06T00:58:30.964Z,98.06
2022-12-06T01:01:08.156Z,98.56
2022-12-06T01:03:38.011Z,98.44
2022-12-06T01:06:06.909Z,98.79
2022-12-06T01:08:35.346Z,98.70
2022-12-06T01:11:04.397Z,98.38
2022-12-06T01:13:32.773Z,98.55
2022-12-06T01:16:05.140Z,98.46
2022-12-06T01:18:33.433Z,99.06
2022-12-06T01:21:05.808Z,98.90
2022-12-06T01:23:34.170Z,98.50
2022-12-06T01:26:02.278Z,99.17
2022-12-06T01:28:30.477Z,99.16
2022-12-06T01:30:58.869Z,98.60
2022-12-06T01:33:27.396Z,98.55
2022-12-06T01:35:55.684Z,98.52
2022-12-06T01:38:25.124Z,98.63
2022-12-06T01:40:53.262Z,99.01
2022-12-06T01:43:31.303Z,98.58
2022-12-06T01:46:01.570Z,98.75
2022-12-06T01:48:30.006Z,99.19
2022-12-06T01:50:59.239Z,98.93
2022-12-06T01:53:29.019Z,98.43
2022-12-06T01:55:57.318Z,98.58
2022-12-06T01:58:29.213Z,98.80
2022-12-06T02:00:57.557Z,98.43
2022-12-06T02:03:28.211Z,98.80
2022-12-06T02:05:57.345Z,98.78
2022-12-06T02:08:25.728Z,98.52
2022-12-06T02:10:55.298Z,98.58
2022-12-06T02:13:24.373Z,98.77
2022-12-06T02:15:57.578Z,99.37
2022-12-06T02:18:30.437Z,98.59
2022-12-06T02:21:04.834Z,99.27
2022-12-06T02:23:47.980Z,98.90
2022-12-06T02:26:23.394Z,98.88
2022-12-06T02:29:08.830Z,99.29
2022-12-06T02:31:41.253Z,99.11
2022-12-06T02:34:14.174Z,99.51
2022-12-06T02:36:46.678Z,99.29
2022-12-06T02:39:17.451Z,98.84
2022-12-06T02:41:50.312Z,99.55
2022-12-06T02:44:21.974Z,98.97
2022-12-06T02:46:52.258Z,99.63
2022-12-06T02:49:20.874Z,99.12
2022-12-06T02:51:50.396Z,99.46
2022-12-06T02:54:19.701Z,99.89
2022-12-06T02:56:47.997Z,99.59
2022-12-06T02:59:16.087Z,99.07
2022-12-06T03:01:46.409Z,99.08
2022-12-06T03:04:32.367Z,99.30
2022-12-06T03:07:13.384Z,99.15
2022-12-06T03:09:49.370Z,99.60
2022-12-06T03:12:21.976Z,99.20
2022-12-06T03:14:54.183Z,98.92
2022-12-06T03:17:25.758Z,99.11
2022-12-06T03:19:59.397Z,99.36
2022-12-06T03:22:32.548Z,99.71
2022-12-06T03:25:05.358Z,99.52
2022-12-06T03:27:34.954Z,99.71
2022-12-06T03:30:06.482Z,98.98
2022-12-06T03:32:35.636Z,99.70
2022-12-06T03:35:07.756Z,99.19
2022-12-06T03:37:37.810Z,99.85
2022-12-06T03:40:09.097Z,99.35
2022-12-06T03:42:37.776Z,99.82
2022-12-06T03:45:06.457Z,99.77
2022-12-06T03:47:37.698Z,99.54
2022-12-06T03:50:10.247Z,99.34
2022-12-06T03:52:39.352Z,99.28
2022-12-06T03:55:08.095Z,99.27
2022-12-06T03:57:36.508Z,99.62
2022-12-06T04:00:05.361Z,99.82
2022-12-06T04:02:33.488Z,99.56
2022-12-06T04:05:01.751Z,99.16
2022-12-06T04:07:31.805Z,99.08
2022-12-06T04:10:03.821Z,98.89
2022-12-06T04:12:50.472Z,99.02
2022-12-06T04:15:19.372Z,98.75
2022-12-06T04:18:05.220Z,98.84
2022-12-06T04:20:49.049Z,99.38
2022-12-06T04:23:18.885Z,99.56
2022-12-06T04:25:47.066Z,99.67
2022-12-06T04:28:34.465Z,99.60
2022-12-06T04:31:22.343Z,99.44
2022-12-06T04:34:08.321Z,99.01
2022-12-06T04:36:54.050Z,99.58
2022-12-06T04:39:23.790Z,99.47
2022-12-06T04:42:09.587Z,99.01
2022-12-06T04:44:37.933Z,99.28
2022-12-06T04:47:06.140Z,99.03
2022-12-06T04:49:34.655Z,99.54
2022-12-06T04:52:03.175Z,99.57
2022-12-06T04:54:32.961Z,99.45
2022-12-06T04:57:01.545Z,99.13
2022-12-06T04:59:30.017Z,99.65
2022-12-06T05:01:58.203Z,99.68
2022-12-06T05:04:26.353Z,99.88
2022-12-06T05:06:54.434Z,99.41
2022-12-06T05:09:22.721Z,99.73
2022-12-06T05:11:52.162Z,99.75
2022-12-06T05:14:20.310Z,99.00
2022-12-06T05:16:48.515Z,99.25
2022-12-06T05:19:16.671Z,99.12
2022-12-06T05:21:45.056Z,99.17
2022-12-06T05:24:14.133Z,99.34
2022-12-06T05:26:42.306Z,99.53
2022-12-06T05:29:11.824Z,99.37
2022-12-06T05:31:39.940Z,99.09
2022-12-06T05:34:08.270Z,99.36
2022-12-06T05:36:36.356Z,99.49
2022-12-06T05:39:04.598Z,99.18
2022-12-06T05:41:32.792Z,99.45
2022-12-06T05:44:00.969Z,99.39
2022-12-06T05:46:30.645Z,99.31
2022-12-06T05:48:58.708Z,99.12
2022-12-06T05:51:26.831Z,99.51
2022-12-06T05:53:54.938Z,99.57
2022-12-06T05:56:23.065Z,99.12
2022-12-06T05:58:51.377Z,99.62
2022-12-06T06:01:19.473Z,99.43
2022-12-06T06:03:48.962Z,99.67
2022-12-06T06:06:17.563Z,99.29
2022-12-06T06:08:45.679Z,99.50
2022-12-06T06:11:14.014Z,99.71
2022-12-06T06:13:42.278Z,99.38
2022-12-06T06:16:10.424Z,99.56
2022-12-06T06:18:38.572Z,99.63
2022-12-06T06:21:08.190Z,99.83
2022-12-06T06:23:36.580Z,99.75
2022-12-06T06:26:07.388Z,100.00
2022-12-06T06:28:35.561Z,99.83
2022-12-06T06:31:03.925Z,100.00
2022-12-06T06:33:32.005Z,100.00
2022-12-06T06:36:00.382Z,100.00
2022-12-06T06:38:29.820Z,100.00
2022-12-06T06:40:57.940Z,100.00
2022-12-06T06:43:26.077Z,100.00
2022-12-06T06:45:54.778Z,100.00
2022-12-06T06:48:23.879Z,100.00
2022-12-06T06:50:56.972Z,100.00
2022-12-06T06:53:27.328Z,100.00
2022-12-06T06:55:56.818Z,100.00
2022-12-06T06:58:25.115Z,100.00
2022-12-06T07:00:55.111Z,100.00
2022-12-06T07:03:23.682Z,100.00
2022-12-06T07:05:52.659Z,100.00
2022-12-06T07:08:21.121Z,100.00
2022-12-06T07:10:49.532Z,100.00
2022-12-06T07:13:20.561Z,100.00
2022-12-06T07:15:49.015Z,100.00
2022-12-06T07:18:17.822Z,100.00
2022-12-06T07:20:46.172Z,100.00
2022-12-06T07:23:14.409Z,100.00
2022-12-06T07:25:42.684Z,100.00
2022-12-06T07:28:10.832Z,100.00
2022-12-06T07:30:40.393Z,100.00
2022-12-06T07:33:08.596Z,100.00
2022-12-06T07:36:10.484Z,100.00
2022-12-06T07:38:26.207Z,100.00
2022-12-06T07:41:04.396Z,100.00
2022-12-06T07:43:50.679Z,100.00
2022-12-06T07:46:20.484Z,100.00
2022-12-06T07:48:48.612Z,100.00
2022-12-06T07:51:16.756Z,100.00
2022-12-06T07:53:44.841Z,100.00
2022-12-06T07:56:13.001Z,100.00
2022-12-06T07:58:42.028Z,100.00
2022-12-06T08:01:10.168Z,100.00
2022-12-06T08:03:39.680Z,100.00
2022-12-06T08:06:08.606Z,100.00
2022-12-06T08:08:36.785Z,100.00
2022-12-06T08:11:06.235Z,100.00
2022-12-06T08:13:35.749Z,100.00
2022-12-06T08:16:05.625Z,100.00
2022-12-06T08:18:33.943Z,100.00
2022-12-06T08:21:03.416Z,100.00
2022-12-06T08:23:34.362Z,100.00
2022-12-06T08:26:04.279Z,100.00
2022-12-06T08:28:33.336Z,100.00
2022-12-06T08:31:06.105Z,100.00
2022-12-06T08:33:34.533Z,100.00
2022-12-06T08:36:08.919Z,100.00
2022-12-06T08:38:37.654Z,100.00
2022-12-06T08:41:06.109Z,100.00
2022-12-06T08:43:34.256Z,99.78
2022-12-06T08:46:02.423Z,99.46
2022-12-06T08:48:30.724Z,99.25
2022-12-06T08:51:03.892Z,98.95
2022-12-06T08:53:32.297Z,99.04
2022-12-06T08:56:02.812Z,98.43
2022-12-06T08:58:31.947Z,98.49
2022-12-06T09:01:00.122Z,98.46
2022-12-06T09:03:28.213Z,98.31
2022-12-06T09:05:56.447Z,98.41
2022-12-06T09:08:25.922Z,98.14
2022-12-06T09:10:54.086Z,98.22
2022-12-06T09:13:22.260Z,98.47
2022-12-06T09:15:50.360Z,98.50
2022-12-06T09:18:18.650Z,98.38
2022-12-06T09:20:46.800Z,98.01
2022-12-06T09:23:14.941Z,97.97
2022-12-06T09:25:44.756Z,97.70
2022-12-06T09:28:12.834Z,97.76
2022-12-06T09:30:41.091Z,97.38
2022-12-06T09:33:09.195Z,97.42
2022-12-06T09:35:37.501Z,96.94
2022-12-06T09:38:05.963Z,96.89
2022-12-06T09:40:39.846Z,96.28
2022-12-06T09:43:25.750Z,95.52
2022-12-06T09:46:01.044Z,94.60
2022-12-06T09:48:41.788Z,94.86
2022-12-06T09:51:20.585Z,94.27
2022-12-06T09:53:57.483Z,94.22
2022-12-06T09:56:27.365Z,93.84
2022-12-06T09:59:04.323Z,93.76
2022-12-06T10:01:40.517Z,93.67
2022-12-06T10:04:15.458Z,93.39
2022-12-06T10:06:49.632Z,92.77
2022-12-06T10:09:25.833Z,92.78
2022-12-06T10:12:11.957Z,91.38
2022-12-06T10:14:51.573Z,91.64
2022-12-06T10:17:25.928Z,91.83
2022-12-06T10:20:02.622Z,91.99
2022-12-06T10:22:39.227Z,91.77
2022-12-06T10:25:14.153Z,91.45
2022-12-06T10:27:46.623Z,90.22
2022-12-06T10:30:16.959Z,89.60
2022-12-06T10:32:51.893Z,90.20
2022-12-06T10:35:25.335Z,89.41
2022-12-06T10:38:01.279Z,87.73
2022-12-06T10:40:31.621Z,87.28
2022-12-06T10:43:04.601Z,86.02
2022-12-06T10:45:52.856Z,86.42
2022-12-06T10:48:27.821Z,86.21
2022-12-06T10:51:00.495Z,86.08
2022-12-06T10:53:31.165Z,84.98
2022-12-06T10:56:01.500Z,84.85
2022-12-06T10:58:33.961Z,85.41
2022-12-06T11:01:04.790Z,82.32
2022-12-06T11:03:38.819Z,79.78
2022-12-06T11:06:10.616Z,76.94
2022-12-06T11:08:41.233Z,77.10
2022-12-06T11:11:12.797Z,77.89
2022-12-06T11:13:43.384Z,77.23
2022-12-06T11:16:14.606Z,79.16
2022-12-06T11:18:44.708Z,79.55
2022-12-06T11:21:19.008Z,80.82
2022-12-06T11:23:51.646Z,81.41
2022-12-06T11:26:24.452Z,82.93
2022-12-06T11:28:59.999Z,84.23
2022-12-06T11:31:32.256Z,84.88
2022-12-06T11:34:03.710Z,85.50
2022-12-06T11:36:32.049Z,86.42
2022-12-06T11:39:00.569Z,86.96
2022-12-06T11:41:29.768Z,86.75
2022-12-06T11:43:58.893Z,87.82
2022-12-06T11:46:27.926Z,87.00
2022-12-06T11:48:59.461Z,86.31
2022-12-06T11:51:29.074Z,84.01
2022-12-06T11:54:01.584Z,81.83
2022-12-06T11:56:31.145Z,74.92
2022-12-06T11:59:03.376Z,75.91
2022-12-06T12:01:39.226Z,67.50
2022-12-06T12:04:35.605Z,61.57
2022-12-06T12:07:17.245Z,61.94
2022-12-06T12:09:48.056Z,64.03
2022-12-06T12:12:17.038Z,67.04
2022-12-06T12:14:50.975Z,68.43
2022-12-06T12:17:20.985Z,70.84
2022-12-06T12:19:51.887Z,72.92
2022-12-06T12:22:28.842Z,75.02
2022-12-06T12:27:47.433Z,79.71
2022-12-06T12:30:36.675Z,79.25
2022-12-06T12:33:25.704Z,78.26
2022-12-06T12:36:09.668Z,77.44
2022-12-06T12:38:41.736Z,75.75
2022-12-06T12:41:28.061Z,75.90
2022-12-06T12:44:20.918Z,75.88
2022-12-06T12:46:50.995Z,77.08
2022-12-06T12:49:24.036Z,77.43
2022-12-06T12:51:52.749Z,76.02
2022-12-06T12:54:24.422Z,76.70
2022-12-06T12:56:52.961Z,76.34
2022-12-06T12:59:22.568Z,76.87
2022-12-06T13:01:52.679Z,75.83
2022-12-06T13:04:30.077Z,75.57
2022-12-06T13:07:00.288Z,75.47
2022-12-06T13:09:32.653Z,74.10
2022-12-06T13:12:04.248Z,73.01
2022-12-06T13:14:33.649Z,73.10
2022-12-06T13:17:06.281Z,72.48
2022-12-06T13:19:36.637Z,72.61
2022-12-06T13:22:05.776Z,72.81
2022-12-06T13:24:36.422Z,73.45
2022-12-06T13:27:14.907Z,73.37
2022-12-06T13:29:45.277Z,73.35
2022-12-06T13:32:14.861Z,73.50
2022-12-06T13:34:47.755Z,74.04
2022-12-06T13:37:29.887Z,72.80
2022-12-06T13:39:59.909Z,72.55
2022-12-06T13:42:46.479Z,72.23
2022-12-06T13:45:33.657Z,70.93
2022-12-06T13:48:02.174Z,71.11
2022-12-06T13:50:50.758Z,71.75
2022-12-06T13:53:19.207Z,71.28
2022-12-06T13:55:58.935Z,71.73
2022-12-06T13:58:52.055Z,72.07
2022-12-06T14:01:39.787Z,73.07
2022-12-06T14:06:56.069Z,74.77
2022-12-06T14:09:25.516Z,75.31
2022-12-06T14:11:55.584Z,76.34
2022-12-06T14:14:24.377Z,77.01
2022-12-06T14:16:53.804Z,77.56
2022-12-06T14:19:22.919Z,77.30
2022-12-06T14:21:53.042Z,77.99
2022-12-06T14:24:25.783Z,78.38
2022-12-06T14:26:55.628Z,79.58
2022-12-06T14:29:24.720Z,79.88
2022-12-06T14:31:53.204Z,81.21
2022-12-06T14:34:25.526Z,80.62
2022-12-06T14:36:54.186Z,80.79
2022-12-06T14:39:24.103Z,80.58
2022-12-06T14:42:11.002Z,80.73
2022-12-06T14:44:41.268Z,81.10
2022-12-06T14:47:12.825Z,81.65
2022-12-06T14:49:59.091Z,81.67
2022-12-06T14:52:28.943Z,81.34
2022-12-06T14:55:14.011Z,81.91
2022-12-06T14:57:45.532Z,81.81
2022-12-06T15:00:26.409Z,81.56
2022-12-06T15:03:03.318Z,81.85
2022-12-06T15:05:36.072Z,82.57
2022-12-06T15:08:20.888Z,82.48
2022-12-06T15:10:56.428Z,82.13
2022-12-06T15:13:24.369Z,82.35
2022-12-06T15:16:03.105Z,82.61
2022-12-06T15:18:33.697Z,82.67
2022-12-06T15:21:02.191Z,82.85
2022-12-06T15:23:36.685Z,82.73
2022-12-06T15:26:06.661Z,82.98
2022-12-06T15:28:35.571Z,83.02
2022-12-06T15:31:05.874Z,83.20
2022-12-06T15:33:34.096Z,83.24
2022-12-06T15:36:02.149Z,83.23
2022-12-06T15:38:30.397Z,83.47
2022-12-06T15:40:58.766Z,83.48
2022-12-06T15:43:29.845Z,83.82
2022-12-06T15:46:00.274Z,84.50
2022-12-06T15:48:30.615Z,83.97
2022-12-06T15:51:00.115Z,84.19
2022-12-06T15:53:29.013Z,84.67
2022-12-06T15:55:57.328Z,84.79
2022-12-06T15:58:26.244Z,85.18
2022-12-06T16:00:54.973Z,85.46
2022-12-06T16:03:23.361Z,86.13
2022-12-06T16:05:52.795Z,85.76
2022-12-06T16:08:20.934Z,86.00
2022-12-06T16:11:11.496Z,86.41
2022-12-06T16:13:37.460Z,86.92
2022-12-06T16:16:06.038Z,87.50
2022-12-06T16:18:34.177Z,87.69
2022-12-06T16:21:03.739Z,87.46
2022-12-06T16:24:12.653Z,87.99
2022-12-06T16:26:41.669Z,87.65
2022-12-06T16:29:12.576Z,88.20
2022-12-06T16:31:41.061Z,88.14
2022-12-06T16:34:09.788Z,88.01
2022-12-06T16:36:52.773Z,88.07
2022-12-06T16:39:22.446Z,87.86
2022-12-06T16:41:50.500Z,87.81
2022-12-06T16:44:18.622Z,87.92
2022-12-06T16:46:46.825Z,87.80
2022-12-06T16:49:44.640Z,87.97
2022-12-06T16:52:04.590Z,88.01
2022-12-06T16:54:33.993Z,87.50
2022-12-06T16:57:02.082Z,87.77
2022-12-06T16:59:30.210Z,87.74
2022-12-06T17:01:59.318Z,87.96
2022-12-06T17:04:27.546Z,88.24
2022-12-06T17:06:55.621Z,88.37
2022-12-06T17:09:23.716Z,87.73
2022-12-06T17:12:06.668Z,87.42
2022-12-06T17:14:35.977Z,87.19
2022-12-06T17:17:04.366Z,87.43
2022-12-06T17:19:33.520Z,87.45
2022-12-06T17:22:02.256Z,87.83
2022-12-06T17:24:30.457Z,87.70
2022-12-06T17:27:00.087Z,87.78
2022-12-06T17:29:28.528Z,87.91
2022-12-06T17:31:57.006Z,87.58
2022-12-06T17:34:25.647Z,87.52
2022-12-06T17:36:54.747Z,87.13
2022-12-06T17:39:23.018Z,86.73
2022-12-06T17:42:08.727Z,86.53
2022-12-06T17:44:39.652Z,86.56
2022-12-06T17:47:08.107Z,86.63
2022-12-06T17:49:38.263Z,86.64
2022-12-06T17:52:06.709Z,86.94
2022-12-06T17:54:34.860Z,87.06
2022-12-06T17:57:03.002Z,86.99
2022-12-06T17:59:32.552Z,87.54
2022-12-06T18:02:18.453Z,87.06
2022-12-06T18:04:47.831Z,86.87
2022-12-06T18:07:17.079Z,87.14
2022-12-06T18:09:45.355Z,87.02
2022-12-06T18:12:14.429Z,87.48
2022-12-06T18:14:42.624Z,87.42
2022-12-06T18:17:12.449Z,87.11
2022-12-06T18:19:41.437Z,87.89
2022-12-06T18:22:09.787Z,88.26
2022-12-06T18:24:37.899Z,88.26
2022-12-06T18:27:06.280Z,88.18
2022-12-06T18:29:34.974Z,88.13
2022-12-06T18:32:03.335Z,88.16
2022-12-06T18:34:33.246Z,88.29
2022-12-06T18:37:01.466Z,88.39
2022-12-06T18:39:29.756Z,88.07
2022-12-06T18:41:58.236Z,87.95
2022-12-06T18:44:26.503Z,87.91
2022-12-06T18:46:54.804Z,88.22
2022-12-06T18:49:22.945Z,87.64
2022-12-06T18:51:52.828Z,87.75
2022-12-06T18:54:21.613Z,87.79
2022-12-06T18:56:49.684Z,87.67
2022-12-06T18:59:17.769Z,87.74
2022-12-06T19:01:46.395Z,87.45
2022-12-06T19:04:16.464Z,87.00
2022-12-06T19:06:45.272Z,86.93
2022-12-06T19:09:15.774Z,86.49
2022-12-06T19:11:45.904Z,86.82
2022-12-06T19:14:14.740Z,86.66
2022-12-06T19:16:44.323Z,87.28
2022-12-06T19:19:16.882Z,87.23
2022-12-06T19:21:46.446Z,87.40
2022-12-06T19:24:16.784Z,87.95
2022-12-06T19:26:44.896Z,87.79
2022-12-06T19:29:13.027Z,87.68
2022-12-06T19:31:41.547Z,87.76
2022-12-06T19:34:14.192Z,87.78
2022-12-06T19:36:42.579Z,87.57
2022-12-06T19:39:11.098Z,87.99
2022-12-06T19:41:55.084Z,88.02
2022-12-06T19:44:23.635Z,88.22
2022-12-06T19:46:52.400Z,88.45
2022-12-06T19:49:21.474Z,88.75
2022-12-06T19:51:50.372Z,89.19
2022-12-06T19:54:20.472Z,88.59
2022-12-06T19:56:50.610Z,88.71
2022-12-06T19:59:18.835Z,88.59
2022-12-06T20:01:48.042Z,88.55
2022-12-06T20:04:17.246Z,88.99
2022-12-06T20:06:45.639Z,89.43
2022-12-06T20:09:14.499Z,88.83
2022-12-06T20:12:00.634Z,88.62
2022-12-06T20:14:31.404Z,88.48
2022-12-06T20:16:59.995Z,88.67
2022-12-06T20:19:28.654Z,88.59
2022-12-06T20:21:56.979Z,88.66
2022-12-06T20:24:25.270Z,88.54
2022-12-06T20:26:54.497Z,88.29
2022-12-06T20:29:22.876Z,88.54
2022-12-06T20:31:52.398Z,88.95
2022-12-06T20:34:20.979Z,88.88
2022-12-06T20:36:49.109Z,89.26
2022-12-06T20:39:19.129Z,89.95
2022-12-06T20:41:48.348Z,90.44
2022-12-06T20:44:18.078Z,90.41
2022-12-06T20:46:49.394Z,90.34
2022-12-06T20:49:19.351Z,91.32
2022-12-06T20:51:52.568Z,91.09
2022-12-06T20:54:22.320Z,91.09
2022-12-06T20:56:53.143Z,91.28
2022-12-06T20:59:21.861Z,91.19
2022-12-06T21:01:50.538Z,91.07
2022-12-06T21:04:20.288Z,91.13
2022-12-06T21:06:48.620Z,91.04
2022-12-06T21:09:17.003Z,91.08
2022-12-06T21:11:45.255Z,90.87
2022-12-06T21:14:14.375Z,90.96
2022-12-06T21:16:43.718Z,91.12
2022-12-06T21:19:13.350Z,90.82
2022-12-06T21:21:44.647Z,91.36
2022-12-06T21:24:14.455Z,91.28
2022-12-06T21:26:42.709Z,90.54
2022-12-06T21:29:13.683Z,90.97
2022-12-06T21:31:42.246Z,90.74
2022-12-06T21:34:11.390Z,90.65
2022-12-06T21:36:39.693Z,90.38
2022-12-06T21:39:09.667Z,90.39
2022-12-06T21:41:38.645Z,91.19
2022-12-06T21:44:07.702Z,91.66
2022-12-06T21:46:36.019Z,92.33
2022-12-06T21:49:04.378Z,92.61
2022-12-06T21:51:33.002Z,92.82
2022-12-06T21:54:01.603Z,92.87
2022-12-06T21:56:32.735Z,92.79
2022-12-06T21:59:01.508Z,92.86
2022-12-06T22:01:30.393Z,93.42
2022-12-06T22:04:01.032Z,93.37
2022-12-06T22:06:29.721Z,93.42
2022-12-06T22:08:58.420Z,93.27
2022-12-06T22:11:26.916Z,93.26
2022-12-06T22:13:57.688Z,93.17
2022-12-06T22:16:26.889Z,93.15
2022-12-06T22:18:56.855Z,93.07
2022-12-06T22:21:26.072Z,93.27
2022-12-06T22:23:54.473Z,93.38
2022-12-06T22:26:23.481Z,92.92
2022-12-06T22:28:52.065Z,92.58
2022-12-06T22:31:28.504Z,92.68
2022-12-06T22:33:57.595Z,92.66
2022-12-06T22:36:26.266Z,93.17
2022-12-06T22:38:55.572Z,93.22
2022-12-06T22:41:24.754Z,92.92
2022-12-06T22:43:53.717Z,92.98
2022-12-06T22:46:22.417Z,92.84
2022-12-06T22:48:52.029Z,92.97
2022-12-06T22:51:21.540Z,92.58
2022-12-06T22:53:52.751Z,92.27
2022-12-06T22:56:21.241Z,92.25
2022-12-06T22:58:49.769Z,92.27
2022-12-06T23:01:19.760Z,92.04
2022-12-06T23:03:49.209Z,92.70
2022-12-06T23:06:20.540Z,92.77
2022-12-06T23:08:49.044Z,92.67
2022-12-06T23:11:18.601Z,92.57
2022-12-06T23:13:47.482Z,92.25
2022-12-06T23:16:17.502Z,92.94
2022-12-06T23:18:46.259Z,92.69
2022-12-06T23:21:15.547Z,92.43
2022-12-06T23:23:45.799Z,92.26
2022-12-06T23:26:14.795Z,92.42
2022-12-06T23:28:43.402Z,91.91
2022-12-06T23:31:16.278Z,92.49
2022-12-06T23:33:45.712Z,92.27
2022-12-06T23:36:17.518Z,92.57
2022-12-06T23:38:47.290Z,92.77
2022-12-06T23:41:16.758Z,92.43
2022-12-06T23:43:45.036Z,92.49
2022-12-06T23:46:19.057Z,92.30
2022-12-06T23:48:50.396Z,91.87
2022-12-06T23:51:19.984Z,92.37
2022-12-06T23:53:52.062Z,91.83
2022-12-06T23:56:21.048Z,92.26
2022-12-06T23:58:51.283Z,92.29
